Austin, TX (78735)

5:09 PM CDT on September 19, 2014 (GMT -0500)
AMD Lone Star Campus | Change Station
CLOSE
Current Station
Personal Weather Station
Location: Austin, TX
Elevation: 1004 ft
Nearby Weather Stations

Elev 1004 ft 30.25 °N, 97.86 °W | Updated 8 minutes ago

Overcast
Overcast
80.4 °F
Feels Like 86 °F
N
0.0
Wind Variable Wind from SSW
Gusts 0.0 mph

Today
High -- | Low -- °F
--% Chance of Precip.
Yesterday
High -- | Low -- °F
Precip. -- in
7:18 AM 7:31 PM
Waning Crescent, 16% visible
Pressure 29.84 in
Visibility 10.0 miles
Clouds Few 3200 ft
Scattered Clouds 11000 ft
Heat Index 86 °F
Dew Point 76 °F
Humidity 85%
Rainfall 0.00 in
Snow Depth Not available.
UV 3 out of 12
Pollen 6.50 out of 12
Ozone Good
PM2.5 Good
Flu Activity Not available.
METAR KATT 192151Z AUTO VRB03KT 10SM FEW032 SCT110 28/22 A2988 RMK AO2 SLP105 T02830222

More Conditions Fewer Conditions

Pressure 29.84 in
Visibility 10.0 miles
Clouds Few 3200 ft
Scattered Clouds 11000 ft
Heat Index 86 °F
Dew Point 76 °F
Humidity 85%
Rainfall 0.00 in
Snow Depth Not available.
UV 3 out of 12
Pollen 6.50 out of 12
Ozone Good
PM2.5 Good
Flu Activity Not available.
METAR KATT 192151Z AUTO VRB03KT 10SM FEW032 SCT110 28/22 A2988 RMK AO2 SLP105 T02830222

More Conditions Fewer Conditions

Nowcast | as of 3:50 PM CDT on September 19, 2014

Through 6 PM...isolated showers and thunderstorms will continue across portions of The Hill Country...I-35 corridor...and coastal plains. Rainfall amounts of 1/10 to 1/4 of an inch will be common...with isolated amounts up to an inch in heavier downpours. Isolated cloud to ground lightning will also be possible.

×

10-Day Weather Forecast

Almanac

Astronomy

Sep. 19, 2014 Rise Set
Actual Time 7:18 AM CDT 7:31 PM CDT
Civil Twilight 6:54 AM CDT 7:55 PM CDT
Nautical Twilight 6:26 AM CDT 8:23 PM CDT
Astronomical Twilight 5:57 AM CDT 8:51 PM CDT
Moon 3:18 AM CDT 4:48 PM CDT
Length of Visible Light 13h 01m
Length of Day
12h 13m
Tomorrow will be 1m 50s shorter.
Waning Crescent, 16% of the Moon is Illuminated
Today
Waning Crescent
Sep 24
New
Oct 1
First Quarter
Oct 8
Full
Oct 15
Last Quarter

Today's Extremes

State Highs State Lows

Community

WunderPhotos

Upload Photos

1,754,718 photos uploaded!

WunderBlogs® & News

Nearby

Air Quality

  Air Quality AQ Index Pollutant
Yesterday Good
OZONE
Yesterday Good
PM2.5
Current Good
PM2.5
Current Good
OZONE
Friday Good
OZONE
Friday Good
PM10
Saturday Good
OZONE
Saturday Good
PM10
Sunday Good
OZONE
Sunday Good
PM10
Monday Moderate
OZONE
Monday Good
PM10
Tuesday Moderate
OZONE
Tuesday Good
PM10

Snow Depth

Station Depth Elevation
No new snow has been reported.

Earthquake Activity

City Distance Mag. Time & Date
No recent earthquake activity has been reported nearby.
Minimum magnitude displayed is 2.5.

Coastal Water Temperatures

Place Temperature
No Stations Reporting

Nearby Weather Stations